createdAt,value
2023-03-10T00:01:59.531Z,99019.41
2023-03-10T00:07:03.587Z,99019.56
2023-03-10T00:12:07.248Z,99069.50
2023-03-10T00:17:10.026Z,99076.22
2023-03-10T00:22:14.096Z,99085.84
2023-03-10T00:27:16.771Z,99070.06
2023-03-10T00:32:19.580Z,99051.44
2023-03-10T00:37:23.642Z,99066.53
2023-03-10T00:42:26.307Z,99064.25
2023-03-10T00:47:28.985Z,99015.38
2023-03-10T00:52:34.741Z,99006.97
2023-03-10T00:57:38.319Z,98962.72
2023-03-10T01:02:40.978Z,98955.28
2023-03-10T01:07:44.997Z,98964.44
2023-03-10T01:12:47.887Z,98993.22
2023-03-10T01:17:50.645Z,98906.13
2023-03-10T01:22:54.669Z,98892.72
2023-03-10T01:27:57.347Z,98875.56
2023-03-10T01:33:00.175Z,98911.47
2023-03-10T01:38:04.366Z,98940.00
2023-03-10T01:43:36.377Z,99015.78
2023-03-10T01:48:39.064Z,99109.72
2023-03-10T01:53:43.211Z,99206.44
2023-03-10T01:58:47.379Z,99271.41
2023-03-10T02:03:54.664Z,99392.13
2023-03-10T02:09:00.761Z,99585.59
2023-03-10T02:14:06.273Z,99659.91
2023-03-10T02:19:13.901Z,99747.25
2023-03-10T02:24:23.440Z,99779.69
2023-03-10T02:29:32.208Z,99861.38
2023-03-10T02:34:35.003Z,99927.13
2023-03-10T02:39:37.914Z,99926.41
2023-03-10T02:44:42.084Z,99982.56
2023-03-10T02:49:45.197Z,99841.28
2023-03-10T02:54:48.165Z,99817.59
2023-03-10T02:59:52.430Z,99825.16
2023-03-10T03:04:55.206Z,99807.34
2023-03-10T03:09:58.239Z,99765.19
2023-03-10T03:15:02.676Z,99832.75
2023-03-10T03:20:11.726Z,99854.50
2023-03-10T03:25:17.438Z,99920.66
2023-03-10T03:30:25.503Z,99975.13
2023-03-10T03:35:31.992Z,99968.44
2023-03-10T03:40:37.084Z,100056.13
2023-03-10T03:45:42.619Z,100101.44
2023-03-10T03:50:45.467Z,100222.94
2023-03-10T03:55:57.841Z,100344.78
2023-03-10T04:01:04.742Z,100312.13
2023-03-10T04:06:13.778Z,100395.22
2023-03-10T04:11:16.753Z,100438.09
2023-03-10T04:16:23.460Z,100607.16
2023-03-10T04:21:26.407Z,100704.94
2023-03-10T04:26:31.699Z,100794.91
2023-03-10T04:31:36.198Z,100818.78
2023-03-10T04:36:39.655Z,100864.72
2023-03-10T04:41:42.600Z,100906.06
2023-03-10T04:46:47.454Z,101047.47
2023-03-10T04:51:50.934Z,101067.13
2023-03-10T04:56:54.228Z,101683.28
2023-03-10T05:01:58.434Z,101973.63
2023-03-10T05:07:01.344Z,102064.44
2023-03-10T05:12:13.446Z,102570.66
2023-03-10T05:17:18.047Z,102778.56
2023-03-10T05:22:21.583Z,102829.66
2023-03-10T05:27:24.614Z,102975.25
2023-03-10T05:32:29.519Z,103381.44
2023-03-10T05:37:36.585Z,106430.34
2023-03-10T05:42:39.707Z,106984.56
2023-03-10T05:47:46.466Z,107273.22
2023-03-10T05:52:51.374Z,107501.78
2023-03-10T05:57:54.092Z,107673.28
2023-03-10T06:02:58.429Z,108478.72
2023-03-10T06:08:01.178Z,109485.13
2023-03-10T06:13:04.091Z,110050.00
2023-03-10T06:18:08.178Z,109939.94
2023-03-10T06:23:11.028Z,110092.50
2023-03-10T06:28:13.777Z,110430.88
2023-03-10T06:33:17.932Z,110444.66
2023-03-10T06:38:21.051Z,110825.78
2023-03-10T06:43:24.142Z,111152.69
2023-03-10T06:48:28.232Z,111061.56
2023-03-10T06:53:30.938Z,111130.28
2023-03-10T06:58:35.104Z,110991.50
2023-03-10T07:03:39.225Z,110921.78
2023-03-10T07:08:41.991Z,111001.41
2023-03-10T07:13:44.906Z,110997.44
2023-03-10T07:18:49.131Z,111237.56
2023-03-10T07:23:51.818Z,112092.69
2023-03-10T07:28:55.261Z,112675.09
2023-03-10T07:33:59.330Z,111946.63
2023-03-10T07:39:02.061Z,112332.16
2023-03-10T07:44:05.098Z,112851.22
2023-03-10T07:49:09.179Z,113452.47
2023-03-10T07:54:13.151Z,113280.16
2023-03-10T07:59:15.891Z,113261.06
2023-03-10T08:04:20.264Z,113193.31
2023-03-10T08:09:23.540Z,112097.16
2023-03-10T08:14:26.478Z,111575.41
2023-03-10T08:19:30.576Z,111226.41
2023-03-10T08:24:33.279Z,110995.28
2023-03-10T08:29:36.461Z,110895.56
2023-03-10T08:34:41.612Z,110889.41
2023-03-10T08:39:44.393Z,110839.63
2023-03-10T08:44:47.196Z,111166.09
2023-03-10T08:49:51.357Z,111208.63
2023-03-10T08:54:54.115Z,111265.28
2023-03-10T08:59:56.890Z,111494.09
2023-03-10T09:05:00.940Z,111280.56
2023-03-10T09:10:04.152Z,111292.81
2023-03-10T09:15:07.744Z,111476.22
2023-03-10T09:20:12.338Z,111960.94
2023-03-10T09:25:15.109Z,113115.28
2023-03-10T09:30:17.944Z,113202.25
2023-03-10T09:35:22.180Z,113351.47
2023-03-10T09:40:25.242Z,113188.03
2023-03-10T09:45:33.396Z,112902.69
2023-03-10T09:50:42.007Z,112629.28
2023-03-10T09:55:48.608Z,111298.41
2023-03-10T10:00:52.155Z,110512.59
2023-03-10T10:05:58.387Z,109725.44
2023-03-10T10:11:01.776Z,109625.94
2023-03-10T10:16:28.291Z,109958.94
2023-03-10T10:21:42.921Z,109921.81
2023-03-10T10:26:46.056Z,109360.31
2023-03-10T10:32:10.057Z,108601.28
2023-03-10T10:37:35.356Z,108067.50
2023-03-10T10:42:40.007Z,107575.41
2023-03-10T10:47:50.063Z,106889.31
2023-03-10T10:53:16.284Z,105403.41
2023-03-10T10:58:28.587Z,104888.59
2023-03-10T11:03:33.594Z,103694.09
2023-03-10T11:08:40.663Z,103386.69
2023-03-10T11:13:55.913Z,103014.81
2023-03-10T11:19:01.950Z,102692.50
2023-03-10T11:24:12.904Z,102224.03
2023-03-10T11:29:25.147Z,101782.06
2023-03-10T11:34:31.194Z,101919.50
2023-03-10T11:39:50.212Z,101319.09
2023-03-10T11:45:03.841Z,100833.38
2023-03-10T11:50:17.821Z,100190.78
2023-03-10T11:55:22.772Z,99749.38
2023-03-10T12:00:30.270Z,99261.03
2023-03-10T12:05:40.886Z,98788.25
2023-03-10T12:10:45.269Z,98610.34
2023-03-10T12:15:48.586Z,98661.38
2023-03-10T12:21:17.742Z,98640.34
2023-03-10T12:26:57.914Z,99043.94
2023-03-10T12:32:02.401Z,99036.22
2023-03-10T12:37:07.859Z,99229.00
2023-03-10T12:42:30.745Z,99318.28
2023-03-10T12:47:46.760Z,99352.81
2023-03-10T12:52:53.964Z,99730.63
2023-03-10T12:58:06.893Z,101193.41
2023-03-10T13:03:24.769Z,101182.78
2023-03-10T13:08:35.828Z,100851.31
2023-03-10T13:13:38.755Z,100467.69
2023-03-10T13:18:47.980Z,100172.03
2023-03-10T13:23:51.039Z,99944.34
2023-03-10T13:28:55.813Z,99750.66
2023-03-10T13:34:13.044Z,99577.59
2023-03-10T13:39:17.405Z,99449.91
2023-03-10T13:44:21.922Z,99289.47
2023-03-10T13:49:28.412Z,99160.72
2023-03-10T13:54:32.593Z,98997.31
2023-03-10T13:59:36.215Z,99013.41
2023-03-10T14:04:44.930Z,98991.47
2023-03-10T14:09:48.822Z,99019.38
2023-03-10T14:14:52.806Z,99071.56
2023-03-10T14:19:57.017Z,99082.09
2023-03-10T14:25:01.358Z,99070.03
2023-03-10T14:30:11.807Z,99079.78
2023-03-10T14:35:17.276Z,99097.50
2023-03-10T14:40:21.346Z,99094.78
2023-03-10T14:45:28.401Z,99021.94
2023-03-10T14:50:32.623Z,98842.09
2023-03-10T14:55:35.472Z,98773.56
2023-03-10T15:00:38.186Z,98719.66
2023-03-10T15:05:48.596Z,98658.84
2023-03-10T15:10:52.179Z,98548.28
2023-03-10T15:15:55.110Z,98450.13
2023-03-10T15:21:00.351Z,98409.75
2023-03-10T15:26:09.428Z,98364.19
2023-03-10T15:31:12.350Z,98311.66
2023-03-10T15:36:16.462Z,98256.22
2023-03-10T15:41:19.375Z,98061.44
2023-03-10T15:46:22.125Z,98048.19
2023-03-10T15:51:26.229Z,98030.75
2023-03-10T15:56:30.160Z,98030.59
2023-03-10T16:01:33.094Z,98030.59
2023-03-10T16:06:37.547Z,98029.63
2023-03-10T16:11:40.250Z,98045.88
2023-03-10T16:16:43.057Z,98037.69
2023-03-10T16:21:47.145Z,98047.19
2023-03-10T16:26:49.902Z,98057.72
2023-03-10T16:31:53.934Z,98050.91
2023-03-10T16:36:58.061Z,98036.78
2023-03-10T16:42:00.896Z,98040.59
2023-03-10T16:47:03.896Z,98037.03
2023-03-10T16:52:10.664Z,98030.03
2023-03-10T16:57:13.994Z,98027.94
2023-03-10T17:02:17.877Z,98031.63
2023-03-10T17:07:21.991Z,98007.06
2023-03-10T17:12:24.759Z,97987.84
2023-03-10T17:17:27.441Z,97982.63
2023-03-10T17:22:31.559Z,97977.97
2023-03-10T17:27:34.267Z,97978.97
2023-03-10T17:32:37.274Z,97966.44
2023-03-10T17:37:41.655Z,97969.88
2023-03-10T17:42:44.378Z,97969.63
2023-03-10T17:47:47.421Z,97970.34
2023-03-10T17:52:52.191Z,97905.41
2023-03-10T17:57:54.916Z,97906.06
2023-03-10T18:02:59.010Z,97893.47
2023-03-10T18:08:03.100Z,97900.91
2023-03-10T18:13:07.816Z,97964.94
2023-03-10T18:18:10.468Z,97987.34
2023-03-10T18:23:14.917Z,98016.66
2023-03-10T18:28:19.239Z,98058.50
2023-03-10T18:33:21.950Z,98039.78
2023-03-10T18:38:25.995Z,98104.34
2023-03-10T18:43:30.028Z,98148.38
2023-03-10T18:48:32.738Z,98184.44
2023-03-10T18:53:37.994Z,98201.16
2023-03-10T18:58:40.759Z,98238.78
2023-03-10T19:03:43.879Z,98269.50
2023-03-10T19:08:47.929Z,98297.25
2023-03-10T19:13:50.819Z,98233.47
2023-03-10T19:18:53.499Z,98288.88
2023-03-10T19:23:57.538Z,98368.00
2023-03-10T19:29:00.224Z,98417.28
2023-03-10T19:34:03.228Z,98464.03
2023-03-10T19:39:07.270Z,98480.72
2023-03-10T19:44:10.024Z,98525.66
2023-03-10T19:49:12.671Z,98582.41
2023-03-10T19:54:16.667Z,98581.88
2023-03-10T19:59:19.336Z,98615.41
2023-03-10T20:04:22.097Z,98649.91
2023-03-10T20:09:26.156Z,98693.81
2023-03-10T20:14:29.110Z,98650.56
2023-03-10T20:19:31.841Z,98664.22
2023-03-10T20:24:36.354Z,98677.97
2023-03-10T20:29:39.101Z,98684.06
2023-03-10T20:34:41.848Z,98711.44
2023-03-10T20:39:45.882Z,98712.41
2023-03-10T20:44:48.551Z,98692.63
2023-03-10T20:49:51.255Z,98704.69
2023-03-10T20:54:55.601Z,98723.31
2023-03-10T20:59:58.290Z,98735.47
2023-03-10T21:05:01.362Z,98774.84
2023-03-10T21:10:06.145Z,98780.84
2023-03-10T21:15:10.367Z,98768.53
2023-03-10T21:20:16.800Z,98788.28
2023-03-10T21:25:22.979Z,98796.94
2023-03-10T21:30:28.608Z,98785.88
2023-03-10T21:35:34.071Z,98739.69
2023-03-10T21:40:38.187Z,98744.19
2023-03-10T21:45:41.038Z,98750.88
2023-03-10T21:50:43.742Z,98761.88
2023-03-10T21:55:47.769Z,98792.28
2023-03-10T22:00:50.781Z,98793.66
2023-03-10T22:05:53.463Z,98802.50
2023-03-10T22:10:57.494Z,98814.34
2023-03-10T22:16:01.057Z,98826.50
2023-03-10T22:21:03.813Z,98841.50
2023-03-10T22:26:08.729Z,98857.13
2023-03-10T22:31:11.808Z,98853.13
2023-03-10T22:36:14.644Z,98871.25
2023-03-10T22:41:18.821Z,98895.44
2023-03-10T22:46:21.500Z,98899.56
2023-03-10T22:51:24.218Z,98914.56
2023-03-10T22:56:28.338Z,98919.50
2023-03-10T23:01:31.153Z,98929.94
2023-03-10T23:06:35.609Z,98964.59
2023-03-10T23:11:39.694Z,98958.75
2023-03-10T23:16:42.401Z,98963.94
2023-03-10T23:21:45.092Z,98984.50
2023-03-10T23:26:49.136Z,98972.69
2023-03-10T23:31:51.866Z,98988.88
2023-03-10T23:36:57.201Z,98986.38
2023-03-10T23:42:02.286Z,98985.13
2023-03-10T23:47:05.136Z,99000.47
2023-03-10T23:52:07.937Z,99012.81
2023-03-10T23:57:12.086Z,99016.00
